sensor_id;sensor_type;location;lat;lon;timestamp;P1;durP1;ratioP1;P2;durP2;ratioP2
26034;SDS011;13809;48.632;11.576;2022-09-09T00:02:16;2.73;;;1.70;;
26034;SDS011;13809;48.632;11.576;2022-09-09T00:07:24;1.70;;;1.60;;
26034;SDS011;13809;48.632;11.576;2022-09-09T00:12:39;2.27;;;1.50;;
26034;SDS011;13809;48.632;11.576;2022-09-09T00:17:51;3.30;;;1.70;;
26034;SDS011;13809;48.632;11.576;2022-09-09T00:23:00;3.63;;;1.73;;
26034;SDS011;13809;48.632;11.576;2022-09-09T00:28:10;1.60;;;1.50;;
26034;SDS011;13809;48.632;11.576;2022-09-09T00:33:21;1.50;;;1.40;;
26034;SDS011;13809;48.632;11.576;2022-09-09T00:38:28;2.90;;;1.30;;
26034;SDS011;13809;48.632;11.576;2022-09-09T00:43:37;2.73;;;1.70;;
26034;SDS011;13809;48.632;11.576;2022-09-09T00:48:44;1.93;;;1.50;;
26034;SDS011;13809;48.632;11.576;2022-09-09T00:53:59;2.10;;;1.80;;
26034;SDS011;13809;48.632;11.576;2022-09-09T00:59:17;2.07;;;1.60;;
26034;SDS011;13809;48.632;11.576;2022-09-09T01:04:29;4.00;;;1.60;;
26034;SDS011;13809;48.632;11.576;2022-09-09T01:09:41;2.10;;;1.90;;
26034;SDS011;13809;48.632;11.576;2022-09-09T01:14:58;2.63;;;1.40;;
26034;SDS011;13809;48.632;11.576;2022-09-09T01:20:10;4.33;;;1.53;;
26034;SDS011;13809;48.632;11.576;2022-09-09T01:25:20;1.83;;;1.70;;
26034;SDS011;13809;48.632;11.576;2022-09-09T01:30:31;1.50;;;1.40;;
26034;SDS011;13809;48.632;11.576;2022-09-09T01:35:40;2.97;;;1.63;;
26034;SDS011;13809;48.632;11.576;2022-09-09T01:40:49;3.63;;;1.73;;
26034;SDS011;13809;48.632;11.576;2022-09-09T01:45:56;2.70;;;1.80;;
26034;SDS011;13809;48.632;11.576;2022-09-09T01:51:03;2.33;;;1.40;;
26034;SDS011;13809;48.632;11.576;2022-09-09T01:56:10;2.00;;;1.80;;
26034;SDS011;13809;48.632;11.576;2022-09-09T02:01:25;3.10;;;1.80;;
26034;SDS011;13809;48.632;11.576;2022-09-09T02:06:35;4.03;;;1.80;;
26034;SDS011;13809;48.632;11.576;2022-09-09T02:11:40;1.60;;;1.50;;
26034;SDS011;13809;48.632;11.576;2022-09-09T02:16:49;1.60;;;1.50;;
26034;SDS011;13809;48.632;11.576;2022-09-09T02:21:57;1.57;;;1.47;;
26034;SDS011;13809;48.632;11.576;2022-09-09T02:27:03;1.37;;;1.27;;
26034;SDS011;13809;48.632;11.576;2022-09-09T02:32:12;3.23;;;1.53;;
26034;SDS011;13809;48.632;11.576;2022-09-09T02:37:19;4.03;;;1.80;;
26034;SDS011;13809;48.632;11.576;2022-09-09T02:42:26;1.70;;;1.60;;
26034;SDS011;13809;48.632;11.576;2022-09-09T02:47:32;1.63;;;1.53;;
26034;SDS011;13809;48.632;11.576;2022-09-09T02:52:40;1.63;;;1.50;;
26034;SDS011;13809;48.632;11.576;2022-09-09T02:57:49;1.70;;;1.60;;
26034;SDS011;13809;48.632;11.576;2022-09-09T03:02:56;2.30;;;1.40;;
26034;SDS011;13809;48.632;11.576;2022-09-09T03:07:59;1.73;;;1.20;;
26034;SDS011;13809;48.632;11.576;2022-09-09T03:13:03;2.53;;;1.60;;
26034;SDS011;13809;48.632;11.576;2022-09-09T03:18:08;1.60;;;1.50;;
26034;SDS011;13809;48.632;11.576;2022-09-09T03:23:11;2.70;;;1.50;;
26034;SDS011;13809;48.632;11.576;2022-09-09T03:28:16;1.70;;;1.60;;
26034;SDS011;13809;48.632;11.576;2022-09-09T03:33:21;1.40;;;1.30;;
26034;SDS011;13809;48.632;11.576;2022-09-09T03:38:24;1.63;;;1.57;;
26034;SDS011;13809;48.632;11.576;2022-09-09T03:43:28;2.10;;;1.50;;
26034;SDS011;13809;48.632;11.576;2022-09-09T03:48:32;1.97;;;1.30;;
26034;SDS011;13809;48.632;11.576;2022-09-09T03:53:36;2.43;;;1.33;;
26034;SDS011;13809;48.632;11.576;2022-09-09T03:58:39;1.73;;;1.33;;
26034;SDS011;13809;48.632;11.576;2022-09-09T04:03:44;3.83;;;1.30;;
26034;SDS011;13809;48.632;11.576;2022-09-09T04:08:47;1.30;;;1.20;;
26034;SDS011;13809;48.632;11.576;2022-09-09T04:13:51;2.30;;;1.40;;
26034;SDS011;13809;48.632;11.576;2022-09-09T04:18:55;1.97;;;1.40;;
26034;SDS011;13809;48.632;11.576;2022-09-09T04:23:59;2.13;;;1.50;;
26034;SDS011;13809;48.632;11.576;2022-09-09T04:29:02;1.23;;;1.13;;
26034;SDS011;13809;48.632;11.576;2022-09-09T04:34:07;1.50;;;1.40;;
26034;SDS011;13809;48.632;11.576;2022-09-09T04:45:34;1.87;;;1.53;;
26034;SDS011;13809;48.632;11.576;2022-09-09T04:50:39;1.70;;;1.60;;
26034;SDS011;13809;48.632;11.576;2022-09-09T04:55:43;3.80;;;1.70;;
26034;SDS011;13809;48.632;11.576;2022-09-09T05:00:46;2.10;;;1.53;;
26034;SDS011;13809;48.632;11.576;2022-09-09T05:05:50;1.50;;;1.40;;
26034;SDS011;13809;48.632;11.576;2022-09-09T05:10:54;1.30;;;1.20;;
26034;SDS011;13809;48.632;11.576;2022-09-09T05:15:57;2.43;;;1.60;;
26034;SDS011;13809;48.632;11.576;2022-09-09T05:21:02;3.50;;;1.70;;
26034;SDS011;13809;48.632;11.576;2022-09-09T05:26:06;2.10;;;1.70;;
26034;SDS011;13809;48.632;11.576;2022-09-09T05:31:18;2.20;;;1.63;;
26034;SDS011;13809;48.632;11.576;2022-09-09T05:36:23;1.87;;;1.50;;
26034;SDS011;13809;48.632;11.576;2022-09-09T05:41:26;4.43;;;1.80;;
26034;SDS011;13809;48.632;11.576;2022-09-09T05:46:30;1.90;;;1.40;;
26034;SDS011;13809;48.632;11.576;2022-09-09T05:51:34;2.07;;;1.70;;
26034;SDS011;13809;48.632;11.576;2022-09-09T05:56:37;1.93;;;1.50;;
26034;SDS011;13809;48.632;11.576;2022-09-09T06:01:40;2.83;;;1.63;;
26034;SDS011;13809;48.632;11.576;2022-09-09T06:06:45;1.90;;;1.80;;
26034;SDS011;13809;48.632;11.576;2022-09-09T06:11:50;2.33;;;2.13;;
26034;SDS011;13809;48.632;11.576;2022-09-09T06:16:53;2.53;;;2.33;;
26034;SDS011;13809;48.632;11.576;2022-09-09T06:21:59;2.30;;;2.10;;
26034;SDS011;13809;48.632;11.576;2022-09-09T06:27:02;5.27;;;2.17;;
26034;SDS011;13809;48.632;11.576;2022-09-09T06:32:06;2.03;;;1.83;;
26034;SDS011;13809;48.632;11.576;2022-09-09T06:37:11;2.60;;;2.33;;
26034;SDS011;13809;48.632;11.576;2022-09-09T06:42:16;1.87;;;1.60;;
26034;SDS011;13809;48.632;11.576;2022-09-09T06:47:21;2.73;;;1.80;;
26034;SDS011;13809;48.632;11.576;2022-09-09T06:52:25;2.47;;;1.90;;
26034;SDS011;13809;48.632;11.576;2022-09-09T06:57:29;2.10;;;1.90;;
26034;SDS011;13809;48.632;11.576;2022-09-09T07:02:38;2.40;;;1.97;;
26034;SDS011;13809;48.632;11.576;2022-09-09T07:07:43;2.30;;;2.10;;
26034;SDS011;13809;48.632;11.576;2022-09-09T07:12:49;2.53;;;1.80;;
26034;SDS011;13809;48.632;11.576;2022-09-09T07:17:54;1.90;;;1.80;;
26034;SDS011;13809;48.632;11.576;2022-09-09T07:22:59;2.67;;;2.10;;
26034;SDS011;13809;48.632;11.576;2022-09-09T07:28:03;3.73;;;1.80;;
26034;SDS011;13809;48.632;11.576;2022-09-09T07:33:06;2.50;;;2.00;;
26034;SDS011;13809;48.632;11.576;2022-09-09T07:38:12;2.07;;;1.87;;
26034;SDS011;13809;48.632;11.576;2022-09-09T07:43:16;2.73;;;1.60;;
26034;SDS011;13809;48.632;11.576;2022-09-09T07:48:20;2.33;;;2.13;;
26034;SDS011;13809;48.632;11.576;2022-09-09T07:53:24;2.00;;;1.80;;
26034;SDS011;13809;48.632;11.576;2022-09-09T07:58:29;2.93;;;2.23;;
26034;SDS011;13809;48.632;11.576;2022-09-09T08:03:39;2.37;;;1.73;;
26034;SDS011;13809;48.632;11.576;2022-09-09T08:08:49;2.80;;;1.90;;
26034;SDS011;13809;48.632;11.576;2022-09-09T08:13:52;2.60;;;2.40;;
26034;SDS011;13809;48.632;11.576;2022-09-09T08:19:02;2.57;;;2.30;;
26034;SDS011;13809;48.632;11.576;2022-09-09T08:24:08;2.97;;;2.50;;
26034;SDS011;13809;48.632;11.576;2022-09-09T08:29:12;3.27;;;2.40;;
26034;SDS011;13809;48.632;11.576;2022-09-09T08:34:16;2.97;;;2.17;;
26034;SDS011;13809;48.632;11.576;2022-09-09T08:39:23;2.13;;;1.93;;
26034;SDS011;13809;48.632;11.576;2022-09-09T08:44:29;2.37;;;2.17;;
26034;SDS011;13809;48.632;11.576;2022-09-09T08:55:20;1.67;;;1.47;;
26034;SDS011;13809;48.632;11.576;2022-09-09T09:00:29;2.23;;;1.73;;
26034;SDS011;13809;48.632;11.576;2022-09-09T09:05:40;1.60;;;1.47;;
26034;SDS011;13809;48.632;11.576;2022-09-09T09:10:51;2.27;;;1.50;;
26034;SDS011;13809;48.632;11.576;2022-09-09T09:16:00;4.63;;;2.27;;
26034;SDS011;13809;48.632;11.576;2022-09-09T09:21:10;2.73;;;2.13;;
26034;SDS011;13809;48.632;11.576;2022-09-09T09:26:21;3.73;;;2.50;;
26034;SDS011;13809;48.632;11.576;2022-09-09T09:31:28;3.87;;;2.20;;
26034;SDS011;13809;48.632;11.576;2022-09-09T09:36:37;2.80;;;1.90;;
26034;SDS011;13809;48.632;11.576;2022-09-09T09:41:44;2.43;;;2.03;;
26034;SDS011;13809;48.632;11.576;2022-09-09T09:46:47;2.37;;;2.10;;
26034;SDS011;13809;48.632;11.576;2022-09-09T09:51:50;4.10;;;1.97;;
26034;SDS011;13809;48.632;11.576;2022-09-09T09:56:55;1.60;;;1.40;;
26034;SDS011;13809;48.632;11.576;2022-09-09T10:02:05;1.57;;;1.33;;
26034;SDS011;13809;48.632;11.576;2022-09-09T10:07:20;1.60;;;1.13;;
26034;SDS011;13809;48.632;11.576;2022-09-09T10:12:29;1.10;;;1.00;;
26034;SDS011;13809;48.632;11.576;2022-09-09T10:17:53;1.20;;;1.10;;
26034;SDS011;13809;48.632;11.576;2022-09-09T10:23:06;1.37;;;1.00;;
26034;SDS011;13809;48.632;11.576;2022-09-09T10:28:30;0.70;;;0.70;;
26034;SDS011;13809;48.632;11.576;2022-09-09T10:33:49;1.50;;;1.20;;
26034;SDS011;13809;48.632;11.576;2022-09-09T10:38:59;1.40;;;1.10;;
26034;SDS011;13809;48.632;11.576;2022-09-09T10:44:12;1.20;;;1.00;;
26034;SDS011;13809;48.632;11.576;2022-09-09T10:49:26;2.80;;;1.17;;
26034;SDS011;13809;48.632;11.576;2022-09-09T10:54:43;0.93;;;0.90;;
26034;SDS011;13809;48.632;11.576;2022-09-09T10:59:55;2.13;;;1.10;;
26034;SDS011;13809;48.632;11.576;2022-09-09T11:05:03;1.33;;;1.10;;
26034;SDS011;13809;48.632;11.576;2022-09-09T11:10:15;1.77;;;1.20;;
26034;SDS011;13809;48.632;11.576;2022-09-09T11:15:28;1.20;;;1.10;;
26034;SDS011;13809;48.632;11.576;2022-09-09T11:20:34;1.33;;;1.03;;
26034;SDS011;13809;48.632;11.576;2022-09-09T11:25:38;1.40;;;1.10;;
26034;SDS011;13809;48.632;11.576;2022-09-09T11:30:48;1.30;;;1.20;;
26034;SDS011;13809;48.632;11.576;2022-09-09T11:36:03;2.30;;;1.20;;
26034;SDS011;13809;48.632;11.576;2022-09-09T11:41:19;2.83;;;1.30;;
26034;SDS011;13809;48.632;11.576;2022-09-09T11:46:35;1.57;;;1.10;;
26034;SDS011;13809;48.632;11.576;2022-09-09T11:51:40;1.40;;;1.30;;
26034;SDS011;13809;48.632;11.576;2022-09-09T11:56:43;1.40;;;1.27;;
26034;SDS011;13809;48.632;11.576;2022-09-09T12:01:50;1.83;;;1.30;;
26034;SDS011;13809;48.632;11.576;2022-09-09T12:06:59;1.63;;;1.37;;
26034;SDS011;13809;48.632;11.576;2022-09-09T12:12:05;1.27;;;1.17;;
26034;SDS011;13809;48.632;11.576;2022-09-09T12:17:18;2.00;;;1.40;;
26034;SDS011;13809;48.632;11.576;2022-09-09T12:22:25;2.10;;;1.50;;
26034;SDS011;13809;48.632;11.576;2022-09-09T12:27:40;1.53;;;1.40;;
26034;SDS011;13809;48.632;11.576;2022-09-09T12:32:59;1.30;;;1.20;;
26034;SDS011;13809;48.632;11.576;2022-09-09T12:38:04;1.97;;;1.50;;
26034;SDS011;13809;48.632;11.576;2022-09-09T12:43:16;2.97;;;1.30;;
26034;SDS011;13809;48.632;11.576;2022-09-09T12:48:24;1.27;;;1.17;;
26034;SDS011;13809;48.632;11.576;2022-09-09T12:53:36;1.20;;;1.10;;
26034;SDS011;13809;48.632;11.576;2022-09-09T12:58:44;5.30;;;1.30;;
26034;SDS011;13809;48.632;11.576;2022-09-09T13:03:50;3.27;;;1.30;;
26034;SDS011;13809;48.632;11.576;2022-09-09T13:08:54;0.90;;;0.90;;
26034;SDS011;13809;48.632;11.576;2022-09-09T13:13:59;1.53;;;0.90;;
26034;SDS011;13809;48.632;11.576;2022-09-09T13:19:07;1.53;;;0.93;;
26034;SDS011;13809;48.632;11.576;2022-09-09T13:24:23;3.43;;;1.17;;
26034;SDS011;13809;48.632;11.576;2022-09-09T13:29:31;0.90;;;0.90;;
26034;SDS011;13809;48.632;11.576;2022-09-09T13:34:36;1.17;;;1.07;;
26034;SDS011;13809;48.632;11.576;2022-09-09T13:39:40;2.30;;;1.00;;
26034;SDS011;13809;48.632;11.576;2022-09-09T13:44:43;2.30;;;0.87;;
26034;SDS011;13809;48.632;11.576;2022-09-09T13:49:50;2.23;;;0.97;;
26034;SDS011;13809;48.632;11.576;2022-09-09T13:54:53;2.43;;;0.80;;
26034;SDS011;13809;48.632;11.576;2022-09-09T13:59:56;2.13;;;0.90;;
26034;SDS011;13809;48.632;11.576;2022-09-09T14:05:08;2.43;;;1.00;;
26034;SDS011;13809;48.632;11.576;2022-09-09T14:10:12;2.20;;;1.20;;
26034;SDS011;13809;48.632;11.576;2022-09-09T14:15:15;1.67;;;1.20;;
26034;SDS011;13809;48.632;11.576;2022-09-09T14:20:20;1.57;;;1.00;;
26034;SDS011;13809;48.632;11.576;2022-09-09T14:25:23;1.50;;;0.77;;
26034;SDS011;13809;48.632;11.576;2022-09-09T14:30:26;1.80;;;1.00;;
26034;SDS011;13809;48.632;11.576;2022-09-09T14:35:31;2.23;;;0.90;;
26034;SDS011;13809;48.632;11.576;2022-09-09T14:40:35;2.60;;;0.90;;
26034;SDS011;13809;48.632;11.576;2022-09-09T14:45:40;1.40;;;0.90;;
26034;SDS011;13809;48.632;11.576;2022-09-09T14:50:46;1.80;;;1.00;;
26034;SDS011;13809;48.632;11.576;2022-09-09T14:55:50;2.07;;;1.10;;
26034;SDS011;13809;48.632;11.576;2022-09-09T15:00:53;1.03;;;0.80;;
26034;SDS011;13809;48.632;11.576;2022-09-09T15:05:58;0.93;;;0.90;;
26034;SDS011;13809;48.632;11.576;2022-09-09T15:11:06;2.17;;;1.13;;
26034;SDS011;13809;48.632;11.576;2022-09-09T15:16:11;1.73;;;1.20;;
26034;SDS011;13809;48.632;11.576;2022-09-09T15:21:18;1.40;;;0.80;;
26034;SDS011;13809;48.632;11.576;2022-09-09T15:26:22;1.87;;;1.00;;
26034;SDS011;13809;48.632;11.576;2022-09-09T15:31:27;1.77;;;1.07;;
26034;SDS011;13809;48.632;11.576;2022-09-09T15:36:33;1.83;;;1.10;;
26034;SDS011;13809;48.632;11.576;2022-09-09T15:41:37;3.23;;;0.77;;
26034;SDS011;13809;48.632;11.576;2022-09-09T15:46:41;1.67;;;0.90;;
26034;SDS011;13809;48.632;11.576;2022-09-09T15:51:50;2.00;;;0.60;;
26034;SDS011;13809;48.632;11.576;2022-09-09T15:56:55;1.00;;;0.70;;
26034;SDS011;13809;48.632;11.576;2022-09-09T16:01:59;0.70;;;0.70;;
26034;SDS011;13809;48.632;11.576;2022-09-09T16:07:05;1.23;;;0.70;;
26034;SDS011;13809;48.632;11.576;2022-09-09T16:12:09;0.80;;;0.70;;
26034;SDS011;13809;48.632;11.576;2022-09-09T16:17:14;3.07;;;1.00;;
26034;SDS011;13809;48.632;11.576;2022-09-09T16:22:18;3.40;;;1.30;;
26034;SDS011;13809;48.632;11.576;2022-09-09T16:27:23;1.30;;;0.80;;
26034;SDS011;13809;48.632;11.576;2022-09-09T16:32:26;1.00;;;0.70;;
26034;SDS011;13809;48.632;11.576;2022-09-09T16:37:30;2.53;;;1.17;;
26034;SDS011;13809;48.632;11.576;2022-09-09T16:42:35;2.57;;;0.80;;
26034;SDS011;13809;48.632;11.576;2022-09-09T16:47:40;0.80;;;0.80;;
26034;SDS011;13809;48.632;11.576;2022-09-09T16:52:44;0.80;;;0.80;;
26034;SDS011;13809;48.632;11.576;2022-09-09T16:57:47;1.40;;;1.10;;
26034;SDS011;13809;48.632;11.576;2022-09-09T17:02:51;1.40;;;0.90;;
26034;SDS011;13809;48.632;11.576;2022-09-09T17:07:56;0.90;;;0.87;;
26034;SDS011;13809;48.632;11.576;2022-09-09T17:12:59;1.07;;;0.90;;
26034;SDS011;13809;48.632;11.576;2022-09-09T17:18:03;2.00;;;1.00;;
26034;SDS011;13809;48.632;11.576;2022-09-09T17:23:08;2.93;;;1.10;;
26034;SDS011;13809;48.632;11.576;2022-09-09T17:28:12;1.10;;;1.00;;
26034;SDS011;13809;48.632;11.576;2022-09-09T17:33:16;8.30;;;1.43;;
26034;SDS011;13809;48.632;11.576;2022-09-09T17:38:23;1.93;;;1.30;;
26034;SDS011;13809;48.632;11.576;2022-09-09T17:43:29;1.40;;;1.20;;
26034;SDS011;13809;48.632;11.576;2022-09-09T17:48:32;2.67;;;1.30;;
26034;SDS011;13809;48.632;11.576;2022-09-09T17:53:38;2.17;;;1.10;;
26034;SDS011;13809;48.632;11.576;2022-09-09T17:58:45;1.30;;;1.17;;
26034;SDS011;13809;48.632;11.576;2022-09-09T18:03:48;3.77;;;1.30;;
26034;SDS011;13809;48.632;11.576;2022-09-09T18:08:55;1.50;;;1.13;;
26034;SDS011;13809;48.632;11.576;2022-09-09T18:14:00;2.30;;;1.10;;
26034;SDS011;13809;48.632;11.576;2022-09-09T18:19:05;3.70;;;1.27;;
26034;SDS011;13809;48.632;11.576;2022-09-09T18:24:11;1.37;;;1.07;;
26034;SDS011;13809;48.632;11.576;2022-09-09T18:29:17;3.07;;;1.70;;
26034;SDS011;13809;48.632;11.576;2022-09-09T18:34:22;1.73;;;1.30;;
26034;SDS011;13809;48.632;11.576;2022-09-09T18:39:30;1.30;;;1.13;;
26034;SDS011;13809;48.632;11.576;2022-09-09T18:44:34;1.73;;;1.23;;
26034;SDS011;13809;48.632;11.576;2022-09-09T18:49:37;1.30;;;1.20;;
26034;SDS011;13809;48.632;11.576;2022-09-09T18:54:41;1.80;;;1.30;;
26034;SDS011;13809;48.632;11.576;2022-09-09T18:59:46;1.30;;;1.10;;
26034;SDS011;13809;48.632;11.576;2022-09-09T19:04:50;1.43;;;1.23;;
26034;SDS011;13809;48.632;11.576;2022-09-09T19:09:55;1.80;;;1.70;;
26034;SDS011;13809;48.632;11.576;2022-09-09T19:14:59;1.90;;;1.80;;
26034;SDS011;13809;48.632;11.576;2022-09-09T19:20:02;3.10;;;1.73;;
26034;SDS011;13809;48.632;11.576;2022-09-09T19:25:10;1.63;;;1.47;;
26034;SDS011;13809;48.632;11.576;2022-09-09T19:30:13;3.27;;;1.80;;
26034;SDS011;13809;48.632;11.576;2022-09-09T19:35:18;2.10;;;1.23;;
26034;SDS011;13809;48.632;11.576;2022-09-09T19:40:22;3.63;;;1.60;;
26034;SDS011;13809;48.632;11.576;2022-09-09T19:45:26;1.83;;;1.37;;
26034;SDS011;13809;48.632;11.576;2022-09-09T19:56:53;2.17;;;1.00;;
26034;SDS011;13809;48.632;11.576;2022-09-09T20:01:56;1.73;;;1.00;;
26034;SDS011;13809;48.632;11.576;2022-09-09T20:06:59;1.93;;;1.00;;
26034;SDS011;13809;48.632;11.576;2022-09-09T20:12:04;2.10;;;1.13;;
26034;SDS011;13809;48.632;11.576;2022-09-09T20:17:09;1.43;;;1.30;;
26034;SDS011;13809;48.632;11.576;2022-09-09T20:22:12;2.33;;;1.10;;
26034;SDS011;13809;48.632;11.576;2022-09-09T20:27:16;1.13;;;1.03;;
26034;SDS011;13809;48.632;11.576;2022-09-09T20:32:19;1.60;;;0.90;;
26034;SDS011;13809;48.632;11.576;2022-09-09T20:37:23;1.83;;;1.00;;
26034;SDS011;13809;48.632;11.576;2022-09-09T20:42:27;1.73;;;1.10;;
26034;SDS011;13809;48.632;11.576;2022-09-09T20:47:30;1.10;;;0.90;;
26034;SDS011;13809;48.632;11.576;2022-09-09T20:52:33;2.07;;;0.93;;
26034;SDS011;13809;48.632;11.576;2022-09-09T20:57:39;2.80;;;0.90;;
26034;SDS011;13809;48.632;11.576;2022-09-09T21:07:50;1.27;;;0.90;;
26034;SDS011;13809;48.632;11.576;2022-09-09T21:12:55;1.40;;;1.10;;
26034;SDS011;13809;48.632;11.576;2022-09-09T21:23:28;2.13;;;1.20;;
26034;SDS011;13809;48.632;11.576;2022-09-09T21:28:33;2.07;;;1.40;;
26034;SDS011;13809;48.632;11.576;2022-09-09T21:33:37;2.07;;;1.43;;
26034;SDS011;13809;48.632;11.576;2022-09-09T21:38:40;1.97;;;1.60;;
26034;SDS011;13809;48.632;11.576;2022-09-09T21:43:50;1.60;;;1.40;;
26034;SDS011;13809;48.632;11.576;2022-09-09T21:48:54;1.87;;;1.50;;
26034;SDS011;13809;48.632;11.576;2022-09-09T21:53:57;1.63;;;1.40;;
26034;SDS011;13809;48.632;11.576;2022-09-09T21:59:05;1.90;;;1.50;;
26034;SDS011;13809;48.632;11.576;2022-09-09T22:04:10;1.70;;;1.13;;
26034;SDS011;13809;48.632;11.576;2022-09-09T22:09:13;2.83;;;1.30;;
26034;SDS011;13809;48.632;11.576;2022-09-09T22:14:18;2.00;;;1.10;;
26034;SDS011;13809;48.632;11.576;2022-09-09T22:19:21;1.83;;;1.10;;
26034;SDS011;13809;48.632;11.576;2022-09-09T22:24:26;1.43;;;1.33;;
26034;SDS011;13809;48.632;11.576;2022-09-09T22:29:30;3.43;;;1.23;;
26034;SDS011;13809;48.632;11.576;2022-09-09T22:34:34;1.27;;;1.10;;
26034;SDS011;13809;48.632;11.576;2022-09-09T22:39:37;2.53;;;1.13;;
26034;SDS011;13809;48.632;11.576;2022-09-09T22:44:42;1.30;;;1.20;;
26034;SDS011;13809;48.632;11.576;2022-09-09T22:49:45;1.07;;;1.00;;
26034;SDS011;13809;48.632;11.576;2022-09-09T22:54:48;1.00;;;0.90;;
26034;SDS011;13809;48.632;11.576;2022-09-09T23:10:09;1.10;;;0.97;;
26034;SDS011;13809;48.632;11.576;2022-09-09T23:15:14;1.50;;;1.00;;
26034;SDS011;13809;48.632;11.576;2022-09-09T23:20:18;0.97;;;0.80;;
26034;SDS011;13809;48.632;11.576;2022-09-09T23:25:22;3.20;;;1.40;;
26034;SDS011;13809;48.632;11.576;2022-09-09T23:30:27;2.87;;;1.20;;
26034;SDS011;13809;48.632;11.576;2022-09-09T23:35:31;3.30;;;1.00;;
26034;SDS011;13809;48.632;11.576;2022-09-09T23:40:34;1.63;;;1.03;;
26034;SDS011;13809;48.632;11.576;2022-09-09T23:45:39;1.57;;;1.20;;
26034;SDS011;13809;48.632;11.576;2022-09-09T23:50:42;1.33;;;1.10;;
26034;SDS011;13809;48.632;11.576;2022-09-09T23:55:46;1.47;;;0.90;;
